Time;durP1;ratioP1;P1;durP2;ratioP2;P2;SDS_P1;SDS_P2;PMS_P1;PMS_P2;Temp;Humidity;BMP_temperature;BMP_pressure;BME280_temperature;BME280_humidity;BME280_pressure;Samples;Min_cycle;Max_cycle;Signal;HPM_P1;HPM_P2
2023/01/13 04:00:51;;;;;;;;;;;8.00;99.90;;;;;;6103635;23;19920;-75
2023/01/13 04:03:20;;;;;;;;;;;8.10;99.90;;;;;;4956495;28;19977;-74
2023/01/13 04:05:51;;;;;;;;;;;8.10;99.90;;;;;;4972196;28;19973;-75
2023/01/13 04:08:19;;;;;;;;;;;8.10;99.90;;;;;;4993532;28;19972;-74
2023/01/13 04:10:57;;;;;;;;;;;8.20;99.90;;;;;;4988657;28;20025;-74
2023/01/13 04:13:26;;;;;;;;;;;8.20;99.90;;;;;;4965602;28;20013;-72
2023/01/13 04:15:54;;;;;;;;;;;8.30;99.90;;;;;;4960098;28;19961;-74
2023/01/13 04:18:22;;;;;;;;;;;8.30;99.90;;;;;;4966451;28;19953;-74
2023/01/13 04:20:50;;;;;;;;;;;8.30;99.90;;;;;;4964323;28;20021;-74
2023/01/13 04:23:17;;;;;;;;;;;8.40;99.90;;;;;;4996030;22;19941;-70
2023/01/13 04:25:44;;;;;;;;;;;8.40;99.90;;;;;;4996834;28;19972;-71
2023/01/13 04:28:11;;;;;;;;;;;8.30;99.90;;;;;;5004844;28;19972;-71
2023/01/13 04:30:38;;;;;;;;;;;8.30;99.90;;;;;;5001100;28;20006;-71
2023/01/13 04:33:06;;;;;;;;;;;8.30;99.90;;;;;;4992952;28;20024;-71
2023/01/13 04:35:33;;;;;;;;;;;8.30;99.90;;;;;;4997133;28;19980;-70
2023/01/13 04:38:00;;;;;;;;;;;8.40;99.90;;;;;;5001895;28;20278;-70
2023/01/13 04:40:27;;;;;;;;;;;8.40;99.90;;;;;;4994165;28;20016;-71
2023/01/13 04:42:53;;;;;;;;;;;8.40;99.90;;;;;;5001502;28;20472;-71
2023/01/13 04:45:20;;;;;;;;;;;8.50;99.90;;;;;;4988900;28;19956;-70
2023/01/13 04:47:47;;;;;;;;;;;8.60;99.90;;;;;;5001899;28;20335;-70
2023/01/13 04:50:18;;;;;;;;;;;8.60;99.90;;;;;;4998738;28;20352;-70
2023/01/13 04:52:45;;;;;;;;;;;8.50;99.90;;;;;;5007597;28;19925;-70
2023/01/13 04:55:12;;;;;;;;;;;8.50;99.90;;;;;;4998462;28;19925;-71
2023/01/13 04:57:39;;;;;;;;;;;8.40;99.90;;;;;;5001935;28;19925;-71
2023/01/13 05:00:06;;;;;;;;;;;8.40;99.90;;;;;;4998981;28;19925;-71
2023/01/13 05:02:33;;;;;;;;;;;8.40;99.90;;;;;;5007782;28;19929;-71
2023/01/13 05:05:00;;;;;;;;;;;8.40;99.90;;;;;;4998127;28;19980;-70
2023/01/13 05:07:28;;;;;;;;;;;8.50;99.90;;;;;;5003106;28;19925;-71
2023/01/13 05:09:55;;;;;;;;;;;8.50;99.90;;;;;;5005065;28;19929;-70
2023/01/13 05:17:51;;;;;;;;;;;8.70;99.90;;;;;;5019740;28;20276;-70
2023/01/13 05:20:18;;;;;;;;;;;8.70;99.90;;;;;;5003496;28;19926;-70
2023/01/13 05:25:30;;;;;;;;;;;8.80;99.90;;;;;;4998975;28;19932;-70
2023/01/13 05:27:57;;;;;;;;;;;8.80;99.90;;;;;;5010422;28;19933;-71
2023/01/13 05:30:25;;;;;;;;;;;8.80;99.90;;;;;;4995483;28;19926;-71
2023/01/13 05:32:52;;;;;;;;;;;8.80;99.90;;;;;;4990697;28;19930;-72
2023/01/13 05:35:19;;;;;;;;;;;8.90;99.90;;;;;;4993932;28;19933;-73
2023/01/13 05:37:47;;;;;;;;;;;8.90;99.90;;;;;;4996704;28;20418;-74
2023/01/13 05:43:23;;;;;;;;;;;8.80;99.90;;;;;;4996503;28;19925;-74
2023/01/13 05:45:51;;;;;;;;;;;8.70;99.90;;;;;;4992254;28;19934;-74
2023/01/13 05:48:19;;;;;;;;;;;8.70;99.90;;;;;;4988589;28;19925;-74
2023/01/13 05:50:45;;;;;;;;;;;8.70;99.90;;;;;;4995261;28;19961;-73
2023/01/13 05:53:14;;;;;;;;;;;8.60;99.90;;;;;;4999499;28;20020;-77
2023/01/13 05:55:41;;;;;;;;;;;8.70;99.90;;;;;;5001761;28;19925;-71
2023/01/13 05:58:07;;;;;;;;;;;8.80;99.90;;;;;;4995298;28;19929;-71
2023/01/13 06:00:34;;;;;;;;;;;8.90;99.90;;;;;;4995655;28;19975;-71
2023/01/13 06:03:01;;;;;;;;;;;8.90;99.90;;;;;;4994989;28;20424;-70
2023/01/13 06:05:28;;;;;;;;;;;8.90;99.90;;;;;;5001148;28;19926;-71
2023/01/13 06:07:56;;;;;;;;;;;9.00;99.90;;;;;;5001318;28;19987;-72
2023/01/13 06:10:24;;;;;;;;;;;9.00;99.90;;;;;;4997576;28;19980;-71
2023/01/13 06:12:51;;;;;;;;;;;9.00;99.90;;;;;;4995754;28;19950;-70
2023/01/13 06:15:17;;;;;;;;;;;9.00;99.90;;;;;;5001652;28;20362;-70
2023/01/13 06:17:44;;;;;;;;;;;9.00;99.90;;;;;;5000706;28;19937;-69
2023/01/13 06:20:12;;;;;;;;;;;8.90;99.90;;;;;;4997756;28;20351;-71
2023/01/13 06:22:39;;;;;;;;;;;8.90;99.90;;;;;;5000005;28;19933;-71
2023/01/13 06:25:10;;;;;;;;;;;8.90;99.90;;;;;;5001067;28;19932;-71
2023/01/13 06:27:38;;;;;;;;;;;8.90;99.90;;;;;;4999310;28;19929;-71
2023/01/13 06:30:07;;;;;;;;;;;8.80;99.90;;;;;;4999897;28;19932;-71
2023/01/13 06:32:35;;;;;;;;;;;8.80;99.90;;;;;;4997819;28;19925;-72
2023/01/13 06:35:05;;;;;;;;;;;8.90;99.90;;;;;;5002128;28;19925;-71
2023/01/13 06:37:32;;;;;;;;;;;8.90;99.90;;;;;;4995986;28;19925;-71
2023/01/13 06:40:00;;;;;;;;;;;8.80;99.90;;;;;;5002485;28;20060;-71
2023/01/13 06:45:25;;;;;;;;;;;8.90;99.90;;;;;;4963163;28;20377;-71
2023/01/13 06:47:53;;;;;;;;;;;8.90;99.90;;;;;;4999575;28;19975;-71
2023/01/13 06:50:20;;;;;;;;;;;8.80;99.90;;;;;;4992152;28;19925;-71
2023/01/13 06:52:46;;;;;;;;;;;8.80;99.90;;;;;;4999727;28;19925;-71
2023/01/13 06:55:13;;;;;;;;;;;8.80;99.90;;;;;;5000688;28;19991;-71
2023/01/13 06:57:50;;;;;;;;;;;8.80;99.90;;;;;;4996561;28;19984;-72
2023/01/13 07:00:17;;;;;;;;;;;8.80;99.90;;;;;;5001869;28;19975;-71
2023/01/13 07:02:45;;;;;;;;;;;8.70;99.90;;;;;;5001109;28;19979;-71
2023/01/13 07:05:12;;;;;;;;;;;8.70;99.90;;;;;;4992495;28;19930;-71
2023/01/13 07:07:38;;;;;;;;;;;8.60;99.90;;;;;;5002303;28;19933;-70
2023/01/13 07:10:07;;;;;;;;;;;8.50;99.90;;;;;;4997871;28;19975;-71
2023/01/13 07:15:17;;;;;;;;;;;8.40;99.90;;;;;;4994890;28;20327;-71
2023/01/13 07:15:19;;;;;;;;;;;8.40;99.90;;;;;;5000892;28;19979;-71
2023/01/13 07:17:47;;;;;;;;;;;8.40;99.90;;;;;;4994024;28;20354;-71
2023/01/13 07:20:14;;;;;;;;;;;8.40;99.90;;;;;;5001349;28;20361;-71
2023/01/13 07:22:41;;;;;;;;;;;8.50;99.90;;;;;;4999319;28;19933;-71
2023/01/13 07:25:08;;;;;;;;;;;8.40;99.90;;;;;;5000089;28;20351;-71
2023/01/13 07:27:35;;;;;;;;;;;8.40;99.90;;;;;;5000578;28;19925;-71
2023/01/13 07:30:02;;;;;;;;;;;8.40;99.90;;;;;;4996285;28;19932;-71
2023/01/13 07:32:31;;;;;;;;;;;8.40;99.90;;;;;;4997504;28;19925;-71
2023/01/13 07:35:04;;;;;;;;;;;8.30;99.90;;;;;;5001753;28;19953;-71
2023/01/13 07:37:31;;;;;;;;;;;8.40;99.90;;;;;;5003535;28;19933;-72
2023/01/13 07:39:58;;;;;;;;;;;8.40;99.90;;;;;;5000261;28;19929;-70
2023/01/13 07:45:09;;;;;;;;;;;8.50;99.90;;;;;;4997850;28;19929;-72
2023/01/13 07:47:36;;;;;;;;;;;8.40;99.90;;;;;;5001646;28;19926;-71
2023/01/13 07:50:05;;;;;;;;;;;8.40;99.90;;;;;;4998620;28;19930;-71
2023/01/13 07:52:32;;;;;;;;;;;8.30;99.90;;;;;;4999896;28;19925;-70
2023/01/13 07:54:58;;;;;;;;;;;8.40;99.90;;;;;;5002289;28;19925;-71
2023/01/13 07:57:25;;;;;;;;;;;8.40;99.90;;;;;;5003811;28;19926;-69
2023/01/13 07:59:52;;;;;;;;;;;8.40;99.90;;;;;;4996104;28;19926;-72
2023/01/13 08:02:19;;;;;;;;;;;8.30;99.90;;;;;;5004365;28;19936;-71
2023/01/13 08:04:46;;;;;;;;;;;8.40;99.90;;;;;;5001683;28;19929;-71
2023/01/13 08:07:14;;;;;;;;;;;8.40;99.90;;;;;;5007851;28;19976;-70
2023/01/13 08:09:41;;;;;;;;;;;8.50;99.90;;;;;;4997022;28;19972;-71
2023/01/13 08:14:52;;;;;;;;;;;8.40;99.90;;;;;;4997673;28;20414;-71
2023/01/13 08:17:19;;;;;;;;;;;8.50;99.90;;;;;;5002194;28;19926;-71
2023/01/13 08:19:46;;;;;;;;;;;8.50;99.90;;;;;;5006566;28;19932;-71
2023/01/13 08:22:14;;;;;;;;;;;8.60;99.90;;;;;;5002147;28;19957;-71
2023/01/13 08:24:41;;;;;;;;;;;8.60;99.90;;;;;;5003142;28;19925;-72
2023/01/13 08:27:08;;;;;;;;;;;8.70;99.90;;;;;;5008112;28;19938;-71
2023/01/13 08:29:34;;;;;;;;;;;8.80;99.90;;;;;;5000493;28;19979;-71
2023/01/13 08:32:01;;;;;;;;;;;8.90;99.90;;;;;;5005439;28;19925;-71
2023/01/13 08:34:28;;;;;;;;;;;9.00;99.90;;;;;;5000790;28;19926;-71
2023/01/13 08:36:55;;;;;;;;;;;9.10;99.90;;;;;;5009560;28;19929;-71
2023/01/13 08:39:23;;;;;;;;;;;9.10;99.90;;;;;;4999319;28;20417;-71
2023/01/13 08:41:57;;;;;;;;;;;9.00;99.90;;;;;;5004286;28;19971;-72
2023/01/13 08:44:24;;;;;;;;;;;9.10;99.90;;;;;;4999726;28;20089;-71
2023/01/13 08:46:51;;;;;;;;;;;9.10;99.90;;;;;;5002862;28;19929;-71
2023/01/13 08:49:18;;;;;;;;;;;9.10;99.90;;;;;;5002178;28;19948;-71
2023/01/13 08:51:45;;;;;;;;;;;9.10;99.90;;;;;;5006008;28;19991;-71
2023/01/13 08:54:12;;;;;;;;;;;9.10;99.90;;;;;;5001277;28;19925;-72
2023/01/13 08:56:40;;;;;;;;;;;9.20;99.90;;;;;;5000333;28;19967;-71
2023/01/13 08:59:08;;;;;;;;;;;9.30;99.90;;;;;;5004528;28;20443;-71
2023/01/13 09:01:38;;;;;;;;;;;9.30;99.90;;;;;;5002512;28;19929;-71
2023/01/13 09:04:04;;;;;;;;;;;9.30;99.90;;;;;;5000742;28;19937;-71
2023/01/13 09:06:31;;;;;;;;;;;9.20;99.90;;;;;;5000885;28;19925;-71
2023/01/13 09:08:58;;;;;;;;;;;9.30;99.90;;;;;;5003687;28;19933;-71
2023/01/13 09:14:18;;;;;;;;;;;9.40;99.90;;;;;;5006476;28;19921;-71
2023/01/13 09:16:45;;;;;;;;;;;9.50;99.90;;;;;;5001022;28;19969;-71
2023/01/13 09:19:12;;;;;;;;;;;9.50;99.90;;;;;;4999414;28;19932;-71
2023/01/13 09:21:38;;;;;;;;;;;9.60;99.90;;;;;;4997898;28;19925;-71
2023/01/13 09:24:05;;;;;;;;;;;9.60;99.90;;;;;;4998171;28;19976;-72
2023/01/13 09:26:32;;;;;;;;;;;9.60;99.90;;;;;;5003747;28;19925;-71
2023/01/13 09:28:59;;;;;;;;;;;9.60;99.90;;;;;;4999746;28;19929;-71
2023/01/13 09:31:27;;;;;;;;;;;9.70;99.90;;;;;;4998498;28;19960;-72
2023/01/13 09:36:37;;;;;;;;;;;9.80;99.90;;;;;;4975482;28;19921;-71
2023/01/13 09:39:05;;;;;;;;;;;10.00;99.90;;;;;;5000276;28;19925;-72
2023/01/13 09:44:35;;;;;;;;;;;9.90;99.90;;;;;;4994690;28;19928;-71
2023/01/13 09:47:06;;;;;;;;;;;9.90;99.90;;;;;;4998710;28;19926;-71
2023/01/13 09:49:35;;;;;;;;;;;9.90;99.90;;;;;;4994597;28;19961;-71
2023/01/13 09:52:03;;;;;;;;;;;10.00;99.90;;;;;;5008499;28;19957;-70
2023/01/13 09:54:31;;;;;;;;;;;10.00;99.90;;;;;;5001253;28;19960;-71
2023/01/13 09:56:58;;;;;;;;;;;10.00;99.90;;;;;;5002408;28;19987;-70
2023/01/13 09:59:27;;;;;;;;;;;10.00;99.90;;;;;;5001417;28;19965;-70
2023/01/13 10:01:58;;;;;;;;;;;10.10;99.90;;;;;;4993922;28;19991;-71
2023/01/13 10:04:26;;;;;;;;;;;10.10;99.90;;;;;;4994271;28;19933;-70
2023/01/13 10:06:55;;;;;;;;;;;10.10;99.90;;;;;;4994152;28;19959;-71
2023/01/13 10:09:23;;;;;;;;;;;10.30;99.90;;;;;;5006131;28;19926;-72
2023/01/13 10:14:37;;;;;;;;;;;10.30;99.90;;;;;;5011548;28;20392;-70
2023/01/13 10:17:10;;;;;;;;;;;10.30;99.90;;;;;;5015822;28;19964;-72
2023/01/13 10:19:41;;;;;;;;;;;10.40;99.90;;;;;;4997605;28;19972;-71
2023/01/13 10:22:17;;;;;;;;;;;10.60;99.90;;;;;;4999194;28;19968;-71
2023/01/13 10:25:03;;;;;;;;;;;10.50;99.90;;;;;;5000005;28;19972;-71
2023/01/13 10:27:31;;;;;;;;;;;10.60;99.90;;;;;;5005216;28;19949;-71
2023/01/13 10:29:58;;;;;;;;;;;10.50;99.90;;;;;;4998157;28;19972;-70
2023/01/13 10:32:25;;;;;;;;;;;10.50;99.90;;;;;;5001027;28;19937;-71
2023/01/13 10:34:56;;;;;;;;;;;10.40;99.90;;;;;;4995949;28;20376;-71
2023/01/13 10:37:24;;;;;;;;;;;10.40;99.90;;;;;;4994241;28;19931;-71
2023/01/13 10:39:53;;;;;;;;;;;10.80;99.90;;;;;;4996795;28;19929;-72
2023/01/13 10:42:22;;;;;;;;;;;10.40;99.90;;;;;;5000832;28;19979;-70
2023/01/13 10:44:50;;;;;;;;;;;10.30;99.90;;;;;;5000337;28;20020;-71
2023/01/13 10:47:22;;;;;;;;;;;10.40;99.90;;;;;;5000331;28;20391;-70
2023/01/13 10:50:04;;;;;;;;;;;10.30;99.90;;;;;;4997840;28;19925;-71
2023/01/13 10:52:35;;;;;;;;;;;10.20;99.90;;;;;;4995147;28;20392;-71
2023/01/13 10:55:02;;;;;;;;;;;10.10;99.90;;;;;;4997673;28;19925;-70
2023/01/13 10:57:29;;;;;;;;;;;10.10;99.90;;;;;;5001337;28;19971;-70
2023/01/13 10:59:56;;;;;;;;;;;10.10;99.90;;;;;;4998630;28;19930;-71
2023/01/13 11:02:26;;;;;;;;;;;10.10;99.90;;;;;;5001740;28;19933;-71
2023/01/13 11:05:01;;;;;;;;;;;10.20;99.90;;;;;;4994181;28;19926;-70
2023/01/13 11:07:29;;;;;;;;;;;10.30;99.90;;;;;;4998709;28;19957;-72
2023/01/13 11:10:10;;;;;;;;;;;10.50;99.90;;;;;;5000466;28;19926;-71
2023/01/13 11:12:43;;;;;;;;;;;10.50;99.90;;;;;;4996992;28;19991;-71
2023/01/13 11:15:13;;;;;;;;;;;10.60;99.90;;;;;;5000432;28;19929;-71
2023/01/13 11:17:44;;;;;;;;;;;11.10;99.90;;;;;;4999466;28;19926;-71
2023/01/13 11:20:17;;;;;;;;;;;10.80;99.90;;;;;;4997691;28;20423;-70
2023/01/13 11:22:45;;;;;;;;;;;10.50;99.90;;;;;;5002739;28;19948;-69
2023/01/13 11:25:15;;;;;;;;;;;10.30;99.90;;;;;;5001848;28;19925;-70
2023/01/13 11:27:43;;;;;;;;;;;10.30;99.90;;;;;;5003123;28;20016;-70
2023/01/13 11:30:17;;;;;;;;;;;10.20;99.90;;;;;;5003541;28;19936;-70
2023/01/13 11:32:51;;;;;;;;;;;10.20;99.90;;;;;;5002656;28;19925;-70
2023/01/13 11:35:18;;;;;;;;;;;10.10;99.90;;;;;;5003937;28;19975;-72
2023/01/13 11:37:48;;;;;;;;;;;10.10;99.90;;;;;;5007525;28;19925;-71
2023/01/13 11:40:18;;;;;;;;;;;10.20;99.90;;;;;;5001024;28;20392;-70
2023/01/13 11:42:48;;;;;;;;;;;10.30;99.90;;;;;;5005158;28;19926;-70
2023/01/13 11:45:17;;;;;;;;;;;10.80;99.90;;;;;;5003891;28;20354;-70
2023/01/13 11:47:46;;;;;;;;;;;10.40;99.90;;;;;;5002098;28;20305;-70
2023/01/13 11:50:15;;;;;;;;;;;10.30;99.90;;;;;;5002728;28;19980;-70
2023/01/13 11:52:52;;;;;;;;;;;10.20;99.90;;;;;;5000079;28;19925;-72
2023/01/13 11:55:26;;;;;;;;;;;10.20;99.90;;;;;;5003860;28;20241;-73
2023/01/13 11:58:00;;;;;;;;;;;10.10;99.90;;;;;;4999078;28;20403;-69
2023/01/13 12:00:32;;;;;;;;;;;10.10;99.90;;;;;;4996762;28;19925;-70
2023/01/13 12:03:08;;;;;;;;;;;10.40;99.90;;;;;;5006053;28;19930;-71
2023/01/13 12:05:36;;;;;;;;;;;10.20;99.90;;;;;;5004315;28;19933;-70
2023/01/13 12:08:15;;;;;;;;;;;10.60;99.90;;;;;;5002778;28;19925;-72
2023/01/13 12:10:46;;;;;;;;;;;12.30;99.90;;;;;;4999702;28;19926;-74
2023/01/13 12:13:20;;;;;;;;;;;11.60;99.90;;;;;;5001236;28;19925;-70
2023/01/13 12:15:59;;;;;;;;;;;10.90;99.90;;;;;;5003216;28;20079;-71
2023/01/13 12:18:43;;;;;;;;;;;10.50;99.90;;;;;;5003059;28;19925;-71
2023/01/13 12:21:18;;;;;;;;;;;10.80;99.90;;;;;;4974356;28;19972;-71
2023/01/13 12:23:47;;;;;;;;;;;12.00;99.90;;;;;;4999410;28;20391;-70
2023/01/13 12:26:15;;;;;;;;;;;11.40;99.90;;;;;;5021059;28;19926;-71
2023/01/13 12:28:44;;;;;;;;;;;10.80;99.90;;;;;;5005263;28;19979;-71
2023/01/13 12:31:13;;;;;;;;;;;10.50;99.90;;;;;;5002906;28;19926;-71
2023/01/13 12:33:44;;;;;;;;;;;10.20;99.90;;;;;;5002955;28;19928;-70
2023/01/13 12:36:16;;;;;;;;;;;9.90;99.90;;;;;;4997844;28;19925;-71
2023/01/13 12:38:45;;;;;;;;;;;9.90;99.90;;;;;;5001571;28;19933;-72
2023/01/13 12:41:16;;;;;;;;;;;9.90;99.90;;;;;;4989690;28;20388;-70
2023/01/13 12:46:56;;;;;;;;;;;9.20;99.90;;;;;;4995707;28;19932;-72
2023/01/13 12:49:27;;;;;;;;;;;8.90;99.90;;;;;;4984162;28;19949;-71
2023/01/13 12:52:17;;;;;;;;;;;8.60;99.90;;;;;;4992558;28;19983;-73
2023/01/13 12:55:01;;;;;;;;;;;8.40;99.90;;;;;;4987359;28;19934;-71
2023/01/13 12:57:36;;;;;;;;;;;8.20;99.90;;;;;;5001550;28;19964;-71
2023/01/13 13:00:15;;;;;;;;;;;8.00;99.90;;;;;;4999165;28;20380;-71
2023/01/13 13:02:42;;;;;;;;;;;8.00;99.90;;;;;;5000522;28;19933;-71
2023/01/13 13:05:28;;;;;;;;;;;8.00;99.90;;;;;;5002938;28;19929;-71
2023/01/13 13:08:04;;;;;;;;;;;7.90;99.90;;;;;;4997012;28;19929;-70
2023/01/13 13:10:32;;;;;;;;;;;7.80;99.90;;;;;;4999658;28;19926;-71
2023/01/13 13:13:16;;;;;;;;;;;7.80;99.90;;;;;;4991451;28;19933;-71
2023/01/13 13:15:45;;;;;;;;;;;7.80;99.90;;;;;;4986235;28;19921;-70
2023/01/13 13:18:29;;;;;;;;;;;7.80;99.90;;;;;;4990491;28;19929;-68
2023/01/13 13:21:01;;;;;;;;;;;7.80;99.90;;;;;;4997465;28;19925;-71
2023/01/13 13:23:49;;;;;;;;;;;7.70;99.90;;;;;;4999372;28;19925;-71
2023/01/13 13:26:29;;;;;;;;;;;7.70;99.90;;;;;;4999886;28;20436;-71
2023/01/13 13:29:05;;;;;;;;;;;7.80;99.90;;;;;;4995644;28;20412;-71
2023/01/13 13:31:37;;;;;;;;;;;8.80;99.90;;;;;;5002225;28;20281;-71
2023/01/13 13:34:12;;;;;;;;;;;10.40;99.90;;;;;;5000684;28;19998;-71
2023/01/13 13:36:57;;;;;;;;;;;10.20;99.90;;;;;;4995271;28;19925;-71
2023/01/13 13:47:57;;;;;;;;;;;9.40;99.90;;;;;;4915360;29;19954;-72
2023/01/13 13:50:24;;;;;;;;;;;9.20;99.90;;;;;;4928465;29;19975;-71
2023/01/13 13:52:54;;;;;;;;;;;9.20;99.90;;;;;;4949508;28;19964;-71
2023/01/13 13:55:22;;;;;;;;;;;9.00;99.90;;;;;;4995499;28;20319;-71
2023/01/13 13:57:49;;;;;;;;;;;8.90;99.90;;;;;;5002049;28;19961;-71
2023/01/13 14:00:20;;;;;;;;;;;9.40;99.90;;;;;;4988643;28;20468;-71
2023/01/13 14:02:48;;;;;;;;;;;9.80;99.90;;;;;;4993617;28;19926;-72
2023/01/13 14:05:20;;;;;;;;;;;9.40;99.90;;;;;;4993233;28;19996;-73
2023/01/13 14:07:48;;;;;;;;;;;9.20;99.90;;;;;;4993645;28;20032;-71
2023/01/13 14:10:17;;;;;;;;;;;8.90;99.90;;;;;;4992681;28;20028;-71
2023/01/13 14:12:44;;;;;;;;;;;8.70;99.90;;;;;;4989642;28;19929;-72
2023/01/13 14:15:30;;;;;;;;;;;8.60;99.90;;;;;;4999582;28;19964;-71
2023/01/13 14:17:56;;;;;;;;;;;8.70;99.90;;;;;;4999443;28;19957;-70
2023/01/13 14:20:26;;;;;;;;;;;8.60;99.90;;;;;;5003665;28;20407;-71
2023/01/13 14:22:53;;;;;;;;;;;8.90;99.90;;;;;;4993754;28;20027;-71
2023/01/13 14:25:27;;;;;;;;;;;8.90;99.90;;;;;;4992204;28;20293;-71
2023/01/13 14:27:55;;;;;;;;;;;8.70;99.90;;;;;;5000166;28;20065;-71
2023/01/13 14:30:22;;;;;;;;;;;8.60;99.90;;;;;;4996673;28;19929;-70
2023/01/13 14:32:49;;;;;;;;;;;8.50;99.90;;;;;;4992644;28;19925;-70
2023/01/13 14:35:16;;;;;;;;;;;8.50;99.90;;;;;;4992432;28;19929;-70
2023/01/13 14:37:47;;;;;;;;;;;8.60;99.90;;;;;;4986453;28;19929;-71
2023/01/13 14:40:34;;;;;;;;;;;8.60;99.90;;;;;;4986177;28;19933;-71
2023/01/13 14:43:02;;;;;;;;;;;8.50;99.90;;;;;;4991481;28;19925;-70
2023/01/13 14:45:29;;;;;;;;;;;8.50;99.90;;;;;;5000112;28;20443;-73
2023/01/13 14:47:57;;;;;;;;;;;8.50;99.90;;;;;;5001143;28;19925;-71
2023/01/13 14:50:30;;;;;;;;;;;8.50;99.90;;;;;;4984121;28;19968;-70
2023/01/13 14:52:59;;;;;;;;;;;8.50;99.90;;;;;;5005821;28;19926;-66
2023/01/13 14:55:30;;;;;;;;;;;8.60;99.90;;;;;;4990619;28;19925;-71
2023/01/13 14:58:15;;;;;;;;;;;8.60;99.90;;;;;;4996189;28;20287;-75
2023/01/13 15:00:42;;;;;;;;;;;8.60;99.90;;;;;;5013703;28;20301;-70
2023/01/13 15:03:13;;;;;;;;;;;8.60;99.90;;;;;;5000896;28;19930;-70
2023/01/13 15:05:46;;;;;;;;;;;8.60;99.90;;;;;;4999799;28;19933;-71
2023/01/13 15:08:26;;;;;;;;;;;8.60;99.90;;;;;;4996168;28;20024;-68
2023/01/13 15:10:54;;;;;;;;;;;8.60;99.90;;;;;;4992227;28;19929;-72
2023/01/13 15:13:24;;;;;;;;;;;8.60;99.90;;;;;;4999616;28;19930;-72
2023/01/13 15:15:52;;;;;;;;;;;8.50;99.90;;;;;;5000448;28;19931;-72
2023/01/13 15:18:18;;;;;;;;;;;8.50;99.90;;;;;;4994999;28;19981;-73
2023/01/13 15:20:46;;;;;;;;;;;8.50;99.90;;;;;;5000511;28;19948;-72
2023/01/13 15:23:12;;;;;;;;;;;8.50;99.90;;;;;;4992303;28;20352;-72
2023/01/13 15:25:41;;;;;;;;;;;8.40;99.90;;;;;;5005029;28;20338;-71
2023/01/13 15:28:15;;;;;;;;;;;8.40;99.90;;;;;;5000643;28;19925;-70
2023/01/13 15:30:41;;;;;;;;;;;8.40;99.90;;;;;;4998901;28;19936;-71
2023/01/13 15:33:10;;;;;;;;;;;8.40;99.90;;;;;;4998672;28;19988;-70
2023/01/13 15:35:37;;;;;;;;;;;8.40;99.90;;;;;;4996374;28;19926;-73
2023/01/13 15:38:09;;;;;;;;;;;8.40;99.90;;;;;;4996759;28;19926;-71
2023/01/13 15:40:35;;;;;;;;;;;8.40;99.90;;;;;;4997910;28;19925;-71
2023/01/13 15:48:32;;;;;;;;;;;8.30;99.90;;;;;;4997144;28;19928;-71
2023/01/13 15:50:59;;;;;;;;;;;8.30;99.90;;;;;;4996635;28;19948;-71
2023/01/13 15:53:26;;;;;;;;;;;8.30;99.90;;;;;;4996418;28;19929;-71
2023/01/13 15:55:54;;;;;;;;;;;8.30;99.90;;;;;;5002337;28;19975;-70
2023/01/13 15:58:24;;;;;;;;;;;8.30;99.90;;;;;;4993162;28;19926;-69
2023/01/13 16:00:51;;;;;;;;;;;8.30;99.90;;;;;;4990020;28;20054;-71
2023/01/13 16:03:18;;;;;;;;;;;8.30;99.90;;;;;;4992273;28;19979;-71
2023/01/13 16:05:45;;;;;;;;;;;8.40;99.90;;;;;;4992393;28;19926;-71
2023/01/13 16:08:14;;;;;;;;;;;8.40;99.90;;;;;;4999218;28;19936;-69
2023/01/13 16:10:41;;;;;;;;;;;8.40;99.90;;;;;;5001157;28;19929;-71
2023/01/13 16:13:07;;;;;;;;;;;8.40;99.90;;;;;;5005234;28;20400;-70
2023/01/13 16:15:36;;;;;;;;;;;8.40;99.90;;;;;;5003674;28;19925;-72
2023/01/13 16:18:04;;;;;;;;;;;8.30;99.90;;;;;;4996517;28;20053;-71
2023/01/13 16:20:30;;;;;;;;;;;8.30;99.90;;;;;;4991191;28;19926;-72
2023/01/13 16:22:57;;;;;;;;;;;8.30;99.90;;;;;;4992913;28;19929;-72
2023/01/13 16:25:25;;;;;;;;;;;8.30;99.90;;;;;;5020375;23;19926;-74
2023/01/13 16:27:52;;;;;;;;;;;8.30;99.90;;;;;;4997296;28;19984;-75
2023/01/13 16:30:23;;;;;;;;;;;8.20;99.90;;;;;;4997740;28;19929;-74
2023/01/13 16:32:51;;;;;;;;;;;8.20;99.90;;;;;;4995585;28;19926;-75
2023/01/13 16:35:18;;;;;;;;;;;8.20;99.90;;;;;;5008149;28;19929;-74
2023/01/13 16:37:47;;;;;;;;;;;8.10;99.90;;;;;;5007355;28;19925;-73
2023/01/13 16:40:20;;;;;;;;;;;8.10;99.90;;;;;;5027904;28;19968;-76
2023/01/13 16:42:46;;;;;;;;;;;8.10;99.90;;;;;;5009433;28;19935;-74
2023/01/13 16:45:13;;;;;;;;;;;8.00;99.90;;;;;;5007118;28;19929;-71
2023/01/13 16:47:41;;;;;;;;;;;8.10;99.90;;;;;;5012835;28;20343;-73
2023/01/13 16:50:17;;;;;;;;;;;8.10;99.90;;;;;;5011596;28;19925;-73
2023/01/13 16:52:44;;;;;;;;;;;8.20;99.90;;;;;;5005929;28;19979;-74
2023/01/13 16:55:10;;;;;;;;;;;8.20;99.90;;;;;;5005856;28;19925;-78
2023/01/13 16:57:37;;;;;;;;;;;8.20;99.90;;;;;;5006444;28;19979;-74
2023/01/13 17:00:05;;;;;;;;;;;8.30;99.90;;;;;;5010516;28;19929;-74
2023/01/13 17:02:32;;;;;;;;;;;8.40;99.90;;;;;;5002240;28;20396;-72
2023/01/13 17:04:58;;;;;;;;;;;8.40;99.90;;;;;;5007330;28;19925;-73
2023/01/13 17:07:27;;;;;;;;;;;8.50;99.90;;;;;;5010141;28;19990;-77
2023/01/13 17:09:54;;;;;;;;;;;8.50;99.90;;;;;;5010770;28;19930;-74
2023/01/13 17:12:21;;;;;;;;;;;8.50;99.90;;;;;;5009482;28;19925;-74
2023/01/13 17:14:47;;;;;;;;;;;8.50;99.90;;;;;;5007617;28;20363;-76
2023/01/13 17:17:20;;;;;;;;;;;8.50;99.90;;;;;;5005847;28;19929;-74
2023/01/13 17:19:46;;;;;;;;;;;8.50;99.90;;;;;;5007348;28;19932;-73
2023/01/13 17:22:13;;;;;;;;;;;8.50;99.90;;;;;;5007990;28;19971;-73
2023/01/13 17:24:42;;;;;;;;;;;8.50;99.90;;;;;;5009245;28;20009;-73
2023/01/13 17:27:08;;;;;;;;;;;8.60;99.90;;;;;;5009009;28;19925;-76
2023/01/13 17:29:35;;;;;;;;;;;8.60;99.90;;;;;;5006831;28;19929;-74
2023/01/13 17:32:02;;;;;;;;;;;8.70;99.90;;;;;;5014304;28;19952;-73
2023/01/13 17:34:29;;;;;;;;;;;8.70;99.90;;;;;;5011258;28;20342;-76
2023/01/13 17:36:56;;;;;;;;;;;8.70;99.90;;;;;;5010163;28;19936;-71
2023/01/13 17:39:23;;;;;;;;;;;8.60;99.90;;;;;;5022499;28;19979;-73
2023/01/13 17:41:52;;;;;;;;;;;8.60;99.90;;;;;;5013503;28;19926;-73
2023/01/13 17:44:19;;;;;;;;;;;8.70;99.90;;;;;;5002400;28;19933;-73
2023/01/13 17:46:46;;;;;;;;;;;8.70;99.90;;;;;;5008962;28;19949;-70
2023/01/13 17:49:13;;;;;;;;;;;8.70;99.90;;;;;;5003310;28;20438;-73
2023/01/13 17:51:40;;;;;;;;;;;8.70;99.90;;;;;;5010228;28;20014;-74
2023/01/13 17:54:10;;;;;;;;;;;8.80;99.90;;;;;;5006095;28;20388;-72
2023/01/13 17:56:37;;;;;;;;;;;8.80;99.90;;;;;;5006543;28;19964;-71
2023/01/13 17:59:05;;;;;;;;;;;8.80;99.90;;;;;;5007829;28;19929;-71
2023/01/13 18:01:32;;;;;;;;;;;8.80;99.90;;;;;;5010646;28;20357;-75
2023/01/13 18:03:59;;;;;;;;;;;8.90;99.90;;;;;;5005406;28;20020;-73
2023/01/13 18:06:26;;;;;;;;;;;8.80;99.90;;;;;;5013163;28;19925;-76
2023/01/13 18:08:53;;;;;;;;;;;8.80;99.90;;;;;;5012345;28;19971;-74
2023/01/13 18:11:21;;;;;;;;;;;8.80;99.90;;;;;;5005567;28;19925;-75
2023/01/13 18:13:48;;;;;;;;;;;8.80;99.90;;;;;;5009298;28;19940;-74
2023/01/13 18:16:18;;;;;;;;;;;8.80;99.90;;;;;;5007177;28;19925;-76
2023/01/13 18:18:46;;;;;;;;;;;8.80;99.90;;;;;;5005692;28;19928;-77
2023/01/13 18:29:42;;;;;;;;;;;8.80;99.90;;;;;;5008517;28;19921;-75
2023/01/13 18:32:10;;;;;;;;;;;8.90;99.90;;;;;;5008756;28;19929;-75
2023/01/13 18:34:37;;;;;;;;;;;8.90;99.90;;;;;;5029841;28;19984;-75
2023/01/13 18:37:04;;;;;;;;;;;8.90;99.90;;;;;;5007148;28;19925;-75
2023/01/13 18:39:30;;;;;;;;;;;8.90;99.90;;;;;;5004417;28;20031;-73
2023/01/13 18:44:41;;;;;;;;;;;8.80;99.90;;;;;;5008360;28;19921;-74
2023/01/13 18:47:10;;;;;;;;;;;8.80;99.90;;;;;;4998792;28;19984;-74
2023/01/13 18:49:36;;;;;;;;;;;8.90;99.90;;;;;;5008936;28;19933;-74
2023/01/13 18:52:03;;;;;;;;;;;8.90;99.90;;;;;;5036446;28;19925;-74
2023/01/13 18:54:30;;;;;;;;;;;8.80;99.90;;;;;;5011167;28;19925;-75
2023/01/13 18:56:59;;;;;;;;;;;8.80;99.90;;;;;;5004698;28;19925;-75
2023/01/13 18:59:27;;;;;;;;;;;8.80;99.90;;;;;;5005294;28;20028;-76
2023/01/13 19:01:53;;;;;;;;;;;8.80;99.90;;;;;;5006950;28;19936;-72
2023/01/13 19:04:21;;;;;;;;;;;8.80;99.90;;;;;;5015690;28;19925;-74
2023/01/13 19:06:50;;;;;;;;;;;8.80;99.90;;;;;;5023726;28;19926;-73
2023/01/13 19:09:17;;;;;;;;;;;8.80;99.90;;;;;;5007964;28;19925;-74
2023/01/13 19:11:45;;;;;;;;;;;8.80;99.90;;;;;;5009089;28;19925;-73
2023/01/13 19:14:12;;;;;;;;;;;8.80;99.90;;;;;;5005669;28;19953;-74
2023/01/13 19:16:39;;;;;;;;;;;8.80;99.90;;;;;;5003647;28;19937;-73
2023/01/13 19:19:06;;;;;;;;;;;8.80;99.90;;;;;;5001173;28;19976;-74
2023/01/13 19:21:34;;;;;;;;;;;8.80;99.90;;;;;;5013418;28;19925;-72
2023/01/13 19:24:01;;;;;;;;;;;8.70;99.90;;;;;;5008264;28;20341;-73
2023/01/13 19:26:28;;;;;;;;;;;8.70;99.90;;;;;;5013202;28;19925;-74
2023/01/13 19:28:54;;;;;;;;;;;8.70;99.90;;;;;;5007241;28;19929;-75
2023/01/13 19:31:21;;;;;;;;;;;8.70;99.90;;;;;;5008241;28;19948;-74
2023/01/13 19:33:48;;;;;;;;;;;8.60;99.90;;;;;;5008493;28;19932;-73
2023/01/13 19:36:15;;;;;;;;;;;8.50;99.90;;;;;;5011869;28;19941;-73
2023/01/13 19:38:43;;;;;;;;;;;8.50;99.90;;;;;;5001320;28;19930;-73